EZY28CL EGCC-LEIB
Flight info
| Callsign | EZY28CL |
|---|---|
| Flight time | N/A |
| Altitude | 29000 |
| Route | LISTO P18 TELBA L151 KIDLI/N0439F350 UN859 VANAD/N0439F370 UN859 SOPIL DCT BALAN DCT EVPOK DCT NARAK DCT GAI DCT LOMRA DCT ROCAN DCT PUMAL N859 BCN Z174 CORDA |
| Aircraft | A320/M-SDE3FGHIRWY/LB1 |
Departure
| Time | N/A |
|---|---|
| Airport | Manchester Airport (EGCC) |
Arrival
| Time | 2026-04-30 17:58 |
|---|---|
| Airport | Ibiza Airport (LEIB) |
| Time | Latitude | Longitude | Altitude | Speed | Heading |
|---|---|---|---|---|---|
| 2026-04-30 14:45 | 53.36891 | -2.28789 | 255 ft | 0 kts | 135° |
| 2026-04-30 15:19 | 53.36913 | -2.28825 | 255 ft | 4 kts | 135° |
| 2026-04-30 17:39 | 39.35637 | 2.01608 | 29058 ft | 439 kts | 238° |
| 2026-04-30 17:41 | 39.22091 | 1.75241 | 21548 ft | 433 kts | 237° |
| 2026-04-30 17:42 | 39.18716 | 1.68889 | 19965 ft | 425 kts | 235° |
| 2026-04-30 17:42 | 39.13353 | 1.59945 | 18149 ft | 419 kts | 233° |
| 2026-04-30 17:43 | 39.09760 | 1.54038 | 18054 ft | 419 kts | 233° |
| 2026-04-30 17:44 | 39.04435 | 1.45085 | 18054 ft | 420 kts | 234° |
| 2026-04-30 17:44 | 38.99342 | 1.36314 | 17483 ft | 383 kts | 235° |
| 2026-04-30 17:46 | 38.91772 | 1.23227 | 14241 ft | 364 kts | 234° |
| 2026-04-30 17:47 | 38.86420 | 1.12745 | 11638 ft | 329 kts | 242° |
| 2026-04-30 17:48 | 38.82602 | 1.03364 | 10262 ft | 265 kts | 242° |
| 2026-04-30 17:48 | 38.80054 | 0.97251 | 8761 ft | 254 kts | 242° |
| 2026-04-30 17:49 | 38.75281 | 0.91132 | 6990 ft | 236 kts | 201° |
| 2026-04-30 17:50 | 38.70120 | 0.94552 | 6446 ft | 238 kts | 97° |
| 2026-04-30 17:51 | 38.71948 | 1.00262 | 5534 ft | 234 kts | 60° |
| 2026-04-30 17:52 | 38.74172 | 1.05759 | 4733 ft | 229 kts | 63° |
| 2026-04-30 17:53 | 38.77863 | 1.14658 | 3555 ft | 224 kts | 62° |
| 2026-04-30 17:54 | 38.80755 | 1.21588 | 2494 ft | 218 kts | 62° |
| 2026-04-30 17:55 | 38.83457 | 1.28083 | 1418 ft | 181 kts | 62° |
| 2026-04-30 17:56 | 38.85511 | 1.33039 | 532 ft | 139 kts | 63° |
| 2026-04-30 17:57 | 38.86862 | 1.36288 | 28 ft | 136 kts | 63° |
| 2026-04-30 17:58 | 38.87550 | 1.37828 | 11 ft | 19 kts | 33° |
| 2026-04-30 17:59 | 38.87628 | 1.37691 | 10 ft | 9 kts | 242° |
| 2026-04-30 18:00 | 38.87429 | 1.37213 | 9 ft | 23 kts | 241° |
| 2026-04-30 18:00 | 38.87347 | 1.36833 | 9 ft | 11 kts | 333° |
| 2026-04-30 18:01 | 38.87460 | 1.36856 | 8 ft | 12 kts | 61° |
| 2026-04-30 18:02 | 38.87538 | 1.36862 | 8 ft | 0 kts | 332° |